Time;durP1;ratioP1;P1;durP2;ratioP2;P2;SDS_P1;SDS_P2;PMS_P1;PMS_P2;Temp;Humidity;BMP_temperature;BMP_pressure;BME280_temperature;BME280_humidity;BME280_pressure;Samples;Min_cycle;Max_cycle;Signal;HPM_P1;HPM_P2
2021/10/18 00:01:48;;;;;;;52.20;47.90;;;;;;;10.17;100.00;101944.05;1940121;74;33113;-70
2021/10/18 00:07:12;;;;;;;50.07;46.17;;;;;;;9.98;100.00;101949.84;1940421;74;33046;-69
2021/10/18 00:12:37;;;;;;;51.50;47.47;;;;;;;10.05;100.00;101950.50;1940973;74;33074;-69
2021/10/18 00:18:22;;;;;;;49.80;46.10;;;;;;;9.72;100.00;101943.61;2000513;71;33268;-70
2021/10/18 00:23:47;;;;;;;49.80;46.13;;;;;;;9.88;100.00;101944.13;1940665;74;33011;-70
2021/10/18 00:29:12;;;;;;;50.07;46.07;;;;;;;9.74;100.00;101937.81;1939955;74;33074;-70
2021/10/18 00:34:36;;;;;;;49.80;46.13;;;;;;;9.81;100.00;101943.48;1940086;74;33195;-71
2021/10/18 00:40:00;;;;;;;54.33;50.03;;;;;;;9.79;100.00;101935.13;1940419;74;31100;-70
2021/10/18 00:45:24;;;;;;;51.07;46.77;;;;;;;9.66;100.00;101948.80;1940847;74;33056;-70
2021/10/18 00:50:51;;;;;;;51.30;47.27;;;;;;;9.67;100.00;101956.00;1940505;74;33523;-69
2021/10/18 00:56:16;;;;;;;51.73;47.80;;;;;;;9.56;100.00;101948.61;1940263;74;32984;-71
2021/10/18 01:01:41;;;;;;;49.30;45.50;;;;;;;9.60;100.00;101940.08;1940861;74;33081;-71
2021/10/18 01:07:06;;;;;;;52.07;48.10;;;;;;;9.65;100.00;101936.55;1941007;74;33562;-70
2021/10/18 01:12:31;;;;;;;53.83;49.37;;;;;;;9.65;100.00;101940.17;1941002;74;32965;-73
2021/10/18 01:17:56;;;;;;;54.53;50.43;;;;;;;9.52;100.00;101941.89;1941038;74;33566;-71
2021/10/18 01:23:24;;;;;;;51.83;47.50;;;;;;;9.52;100.00;101947.44;1940794;74;33008;-71
2021/10/18 01:28:48;;;;;;;52.03;47.83;;;;;;;9.62;100.00;101949.01;1940854;74;33090;-70
2021/10/18 01:34:13;;;;;;;51.87;47.83;;;;;;;9.70;100.00;101944.42;1940159;74;33617;-71
2021/10/18 01:39:40;;;;;;;53.80;49.63;;;;;;;9.63;100.00;101942.34;1940120;74;33540;-70
2021/10/18 01:45:05;;;;;;;53.40;49.10;;;;;;;9.71;100.00;101941.11;1940237;74;33112;-69
2021/10/18 01:50:31;;;;;;;58.13;53.27;;;;;;;9.71;100.00;101943.88;1940202;74;33582;-69
2021/10/18 01:55:55;;;;;;;54.23;49.77;;;;;;;9.40;100.00;101938.36;1940684;74;33072;-69
2021/10/18 02:01:20;;;;;;;52.83;48.77;;;;;;;9.44;100.00;101939.00;1939950;74;33056;-71
2021/10/18 02:06:44;;;;;;;52.27;48.17;;;;;;;9.44;100.00;101920.12;1940109;74;33510;-71
2021/10/18 02:12:09;;;;;;;55.17;50.77;;;;;;;9.66;100.00;101919.66;1939972;74;33125;-72
2021/10/18 02:17:34;;;;;;;56.07;51.43;;;;;;;9.59;100.00;101912.05;1940737;74;32968;-70
2021/10/18 02:23:00;;;;;;;54.47;49.97;;;;;;;9.57;100.00;101910.08;1940926;74;33581;-70
2021/10/18 02:28:24;;;;;;;54.80;50.33;;;;;;;9.44;100.00;101903.48;1940824;74;33455;-70
2021/10/18 02:33:49;;;;;;;53.57;49.00;;;;;;;9.36;100.00;101908.91;1941025;74;33068;-70
2021/10/18 02:39:14;;;;;;;55.33;50.67;;;;;;;9.28;100.00;101891.84;1940588;74;33044;-72
2021/10/18 02:44:40;;;;;;;55.07;50.77;;;;;;;9.30;100.00;101897.42;1940484;74;33497;-72
2021/10/18 02:50:05;;;;;;;52.43;48.03;;;;;;;9.33;100.00;101888.59;1940359;74;33152;-69
2021/10/18 02:55:30;;;;;;;51.07;46.90;;;;;;;9.21;100.00;101888.38;1940280;74;33484;-72
2021/10/18 03:00:54;;;;;;;52.53;48.53;;;;;;;9.22;100.00;101892.84;1939985;74;32984;-71
2021/10/18 03:06:18;;;;;;;52.40;48.30;;;;;;;9.07;100.00;101890.09;1940289;74;32980;-72
2021/10/18 03:11:42;;;;;;;52.50;48.60;;;;;;;9.12;100.00;101898.50;1940990;74;33451;-70
2021/10/18 03:17:06;;;;;;;51.53;47.43;;;;;;;9.06;100.00;101906.98;1940209;74;33560;-71
2021/10/18 03:22:31;;;;;;;52.63;48.13;;;;;;;8.84;100.00;101904.08;1941045;74;33079;-70
2021/10/18 03:27:55;;;;;;;54.70;50.20;;;;;;;8.98;100.00;101892.16;1941046;74;33121;-72
2021/10/18 03:33:19;;;;;;;55.77;50.93;;;;;;;8.95;100.00;101898.17;1940919;74;33061;-70
2021/10/18 03:38:43;;;;;;;53.87;49.40;;;;;;;8.97;100.00;101892.70;1940805;74;32978;-71
2021/10/18 03:44:07;;;;;;;53.73;49.23;;;;;;;8.97;100.00;101883.53;1940956;74;33090;-70
2021/10/18 03:49:35;;;;;;;50.73;46.67;;;;;;;8.97;100.00;101889.08;1940126;74;33053;-70
2021/10/18 03:55:00;;;;;;;51.93;47.93;;;;;;;9.05;100.00;101879.81;1940335;74;33586;-72
2021/10/18 04:03:10;;;;;;;48.33;44.73;;;;;;;8.96;100.00;101882.70;2060189;69;33132;-69
2021/10/18 04:05:40;;;;;;;51.47;47.47;;;;;;;8.97;100.00;101902.94;1949576;73;26172;-72
2021/10/18 04:08:11;;;;;;;51.90;47.97;;;;;;;8.90;100.00;101898.91;2030549;71;26150;-70
2021/10/18 04:10:43;;;;;;;51.23;47.23;;;;;;;8.82;100.00;101896.55;2030421;70;26161;-70
2021/10/18 04:13:13;;;;;;;50.87;46.77;;;;;;;8.89;100.00;101896.41;2030592;71;26648;-70
2021/10/18 04:15:43;;;;;;;50.80;46.90;;;;;;;8.88;100.00;101907.19;2030417;71;26177;-70
2021/10/18 04:18:13;;;;;;;51.20;47.30;;;;;;;8.72;100.00;101906.06;2030333;71;26157;-70
2021/10/18 04:20:43;;;;;;;51.47;47.47;;;;;;;8.72;100.00;101906.61;2030346;71;26209;-70
2021/10/18 04:23:13;;;;;;;51.10;47.17;;;;;;;8.69;100.00;101898.23;1997172;70;26680;-70
2021/10/18 04:25:44;;;;;;;52.80;48.40;;;;;;;8.76;100.00;101903.10;1993085;72;26378;-72
2021/10/18 04:31:08;;;;;;;52.40;48.50;;;;;;;9.04;100.00;101878.13;1940502;74;33587;-70
2021/10/18 04:36:32;;;;;;;50.97;47.20;;;;;;;8.96;100.00;101884.08;1940007;74;33051;-72
2021/10/18 04:42:03;;;;;;;55.13;50.53;;;;;;;9.01;100.00;101878.63;1939979;74;33021;-70
2021/10/18 04:47:27;;;;;;;59.57;54.60;;;;;;;9.09;100.00;101880.99;1940817;74;33058;-70
2021/10/18 04:52:51;;;;;;;60.97;55.67;;;;;;;9.09;100.00;101907.86;1940775;74;33123;-70
2021/10/18 04:58:16;;;;;;;57.10;51.97;;;;;;;9.30;100.00;101902.97;1940016;74;33100;-72
2021/10/18 05:03:42;;;;;;;57.50;52.80;;;;;;;9.35;100.00;101892.52;1940014;74;32978;-72
2021/10/18 05:09:07;;;;;;;55.00;50.33;;;;;;;9.39;100.00;101887.60;1940836;74;32967;-70
2021/10/18 05:14:31;;;;;;;53.97;49.27;;;;;;;9.24;100.00;101878.20;1940211;74;33423;-72
2021/10/18 05:19:56;;;;;;;54.30;49.77;;;;;;;9.26;100.00;101885.70;1940042;74;33060;-72
2021/10/18 05:25:23;;;;;;;53.30;48.87;;;;;;;9.10;100.00;101879.06;1941045;74;33067;-70
2021/10/18 05:30:48;;;;;;;55.47;50.73;;;;;;;9.24;100.00;101886.52;1940867;74;33072;-72
2021/10/18 05:36:13;;;;;;;54.13;49.90;;;;;;;9.10;100.00;101889.61;1939997;74;33105;-69
2021/10/18 05:41:38;;;;;;;53.13;48.90;;;;;;;9.19;100.00;101898.89;1940285;74;33067;-69
2021/10/18 05:47:03;;;;;;;54.80;50.13;;;;;;;9.29;100.00;101891.58;1940240;74;33055;-71
2021/10/18 05:52:28;;;;;;;53.10;48.77;;;;;;;9.36;100.00;101898.36;1940148;74;33179;-70
2021/10/18 05:57:55;;;;;;;55.17;50.57;;;;;;;9.23;100.00;101903.69;1940010;74;32958;-72
2021/10/18 06:03:20;;;;;;;53.10;48.87;;;;;;;9.45;100.00;101896.86;1940162;74;32985;-70
2021/10/18 06:08:45;;;;;;;51.30;47.20;;;;;;;9.42;100.00;101903.73;1940637;74;33587;-72
2021/10/18 06:14:13;;;;;;;48.37;44.63;;;;;;;9.41;100.00;101878.47;1940674;74;33131;-71
2021/10/18 06:19:39;;;;;;;51.07;46.97;;;;;;;9.27;100.00;101872.98;1940095;74;33045;-73
2021/10/18 06:25:06;;;;;;;52.40;48.10;;;;;;;9.43;100.00;101872.14;1940349;74;33051;-73
2021/10/18 06:30:30;;;;;;;52.93;48.83;;;;;;;9.50;100.00;101867.79;1940495;74;33488;-71
2021/10/18 06:35:55;;;;;;;57.00;52.13;;;;;;;9.49;100.00;101854.50;1940307;74;33065;-71
2021/10/18 06:41:19;;;;;;;51.23;47.20;;;;;;;9.61;100.00;101844.68;1940404;74;32995;-75
2021/10/18 06:46:44;;;;;;;57.10;52.53;;;;;;;9.47;100.00;101830.87;1940299;74;33513;-76
2021/10/18 06:52:08;;;;;;;58.13;53.53;;;;;;;9.80;100.00;101839.66;1940176;74;33032;-72
2021/10/18 06:57:34;;;;;;;61.17;55.93;;;;;;;9.84;100.00;101838.09;1940171;74;33764;-76
2021/10/18 07:03:00;;;;;;;61.80;56.83;;;;;;;9.91;100.00;101823.47;1940257;74;33029;-76
2021/10/18 07:08:25;;;;;;;63.13;58.23;;;;;;;10.27;100.00;101808.95;1939924;74;33540;-70
2021/10/18 07:13:53;;;;;;;64.20;58.97;;;;;;;10.47;100.00;101817.53;1939918;74;32963;-71
2021/10/18 07:19:18;;;;;;;60.73;55.93;;;;;;;10.35;100.00;101830.73;1940030;74;33483;-71
2021/10/18 07:24:43;;;;;;;62.10;57.43;;;;;;;10.34;100.00;101819.33;1939828;74;33082;-72
2021/10/18 07:30:10;;;;;;;60.87;56.17;;;;;;;10.43;100.00;101814.99;1939894;74;33026;-71
2021/10/18 07:35:36;;;;;;;62.53;57.73;;;;;;;10.54;100.00;101797.86;1939709;74;33039;-72
2021/10/18 07:41:01;;;;;;;65.23;60.10;;;;;;;10.71;100.00;101804.70;1939846;74;33317;-72
2021/10/18 07:46:26;;;;;;;63.10;58.20;;;;;;;10.73;100.00;101812.24;1940285;74;32967;-72
2021/10/18 07:51:53;;;;;;;66.57;61.63;;;;;;;10.80;100.00;101812.30;1940839;74;32986;-72
2021/10/18 07:57:21;;;;;;;64.10;58.97;;;;;;;10.92;100.00;101827.42;1940606;74;32956;-71
2021/10/18 08:02:49;;;;;;;66.50;61.70;;;;;;;10.98;100.00;101821.36;1940965;74;33098;-72
2021/10/18 08:08:20;;;;;;;66.97;61.47;;;;;;;11.04;100.00;101830.86;1940774;74;32970;-71
2021/10/18 08:13:57;;;;;;;67.63;62.33;;;;;;;11.02;100.00;101830.30;1940302;74;33055;-73
2021/10/18 08:19:22;;;;;;;64.33;59.33;;;;;;;11.13;100.00;101850.13;1940694;74;33130;-72
2021/10/18 08:24:46;;;;;;;59.00;54.20;;;;;;;11.11;100.00;101841.78;1940996;74;33447;-72
2021/10/18 08:30:11;;;;;;;60.40;55.57;;;;;;;11.13;100.00;101838.17;1940779;74;32961;-72
2021/10/18 08:35:36;;;;;;;63.17;58.27;;;;;;;11.28;100.00;101817.45;1940785;74;33086;-70
2021/10/18 08:41:05;;;;;;;57.37;52.87;;;;;;;11.35;100.00;101809.70;1940900;74;32970;-72
2021/10/18 08:46:30;;;;;;;59.53;54.87;;;;;;;11.77;100.00;101814.74;1940931;74;33135;-72
2021/10/18 08:51:54;;;;;;;59.67;54.63;;;;;;;12.09;100.00;101819.36;1940975;74;33437;-71
2021/10/18 08:57:21;;;;;;;63.17;58.00;;;;;;;12.27;100.00;101807.75;1940866;74;33129;-70
2021/10/18 09:02:45;;;;;;;58.97;53.57;;;;;;;12.39;100.00;101785.20;1940881;74;33112;-71
2021/10/18 09:08:21;;;;;;;63.07;57.77;;;;;;;12.71;100.00;101769.09;1940898;74;33029;-72
2021/10/18 09:14:01;;;;;;;65.87;60.07;;;;;;;13.07;100.00;101753.22;1941138;74;33004;-75
2021/10/18 09:19:28;;;;;;;66.40;60.73;;;;;;;13.52;100.00;101746.77;1940936;74;33439;-70
2021/10/18 09:24:56;;;;;;;61.60;56.07;;;;;;;13.76;100.00;101745.02;1941088;74;32941;-71
2021/10/18 09:30:37;;;;;;;63.50;57.50;;;;;;;13.91;100.00;101737.95;1941067;74;33059;-71
2021/10/18 09:36:13;;;;;;;62.77;57.30;;;;;;;14.28;100.00;101760.42;1940840;74;33019;-71
2021/10/18 09:41:37;;;;;;;61.40;56.00;;;;;;;14.54;100.00;101778.20;1940927;74;32961;-72
2021/10/18 10:51:52;;;;;;;49.40;45.80;;;;;;;16.22;100.00;101722.72;1940825;74;31053;-73
2021/10/18 10:57:35;;;;;;;46.70;43.30;;;;;;;16.34;100.00;101711.33;1940941;74;33430;-72
2021/10/18 11:03:42;;;;;;;47.57;43.93;;;;;;;16.40;100.00;101722.75;1941075;74;33485;-72
2021/10/18 11:09:37;;;;;;;46.00;42.60;;;;;;;16.55;100.00;101718.89;1940821;74;31145;-71
2021/10/18 11:15:06;;;;;;;44.90;41.30;;;;;;;16.68;100.00;101723.77;1940890;74;31057;-72
2021/10/18 11:20:33;;;;;;;44.30;41.00;;;;;;;16.78;100.00;101711.52;1940914;74;33491;-71
2021/10/18 11:25:58;;;;;;;45.60;42.30;;;;;;;16.78;100.00;101720.77;1940858;74;33096;-71
2021/10/18 11:31:32;;;;;;;47.10;43.80;;;;;;;16.86;100.00;101715.63;1940805;74;31107;-71
2021/10/18 11:37:10;;;;;;;46.50;43.03;;;;;;;16.78;100.00;101712.36;1941046;74;33540;-75
2021/10/18 11:42:39;;;;;;;45.17;41.67;;;;;;;16.81;100.00;101707.52;1940829;74;31044;-71
2021/10/18 11:48:07;;;;;;;44.30;40.97;;;;;;;16.94;100.00;101698.92;1940965;74;33475;-71
2021/10/18 11:53:37;;;;;;;45.90;42.10;;;;;;;17.10;100.00;101698.06;1941032;74;31642;-71
2021/10/18 11:59:06;;;;;;;47.30;43.43;;;;;;;17.05;100.00;101693.38;1940880;74;33530;-71
2021/10/18 12:07:46;;;;;;;45.13;42.03;;;;;;;16.97;100.00;101673.59;2060906;69;32730;-74
2021/10/18 12:10:26;;;;;;;46.27;42.87;;;;;;;16.94;100.00;101685.45;2030472;70;26160;-71
2021/10/18 12:13:18;;;;;;;46.27;42.97;;;;;;;16.91;100.00;101683.23;2030429;71;24524;-73
2021/10/18 12:15:53;;;;;;;47.13;43.93;;;;;;;16.89;100.00;101682.16;2030616;71;26175;-72
2021/10/18 12:18:25;;;;;;;47.73;44.33;;;;;;;16.89;100.00;101682.16;2030410;71;24112;-73
2021/10/18 12:20:57;;;;;;;46.27;43.07;;;;;;;16.82;100.00;101683.11;2030506;71;24626;-73
2021/10/18 12:26:25;;;;;;;48.47;44.77;;;;;;;16.86;100.00;101660.91;1941079;74;34039;-72
2021/10/18 12:31:51;;;;;;;49.50;45.90;;;;;;;16.83;100.00;101669.34;1940792;74;31063;-72
2021/10/18 12:37:24;;;;;;;49.63;45.93;;;;;;;16.87;100.00;101654.96;1940906;74;31128;-71
2021/10/18 12:42:56;;;;;;;49.60;45.80;;;;;;;16.97;100.00;101649.73;1941026;74;33614;-72
2021/10/18 12:48:24;;;;;;;50.63;46.67;;;;;;;17.02;100.00;101637.02;1940764;74;31046;-71
2021/10/18 12:53:49;;;;;;;46.53;42.93;;;;;;;17.03;100.00;101614.84;1941084;74;31658;-72
2021/10/18 12:59:18;;;;;;;47.40;43.63;;;;;;;17.18;100.00;101618.16;1940817;74;32994;-71
2021/10/18 13:04:44;;;;;;;46.77;43.20;;;;;;;17.13;100.00;101630.89;1940857;74;31136;-69
2021/10/18 13:10:11;;;;;;;49.77;46.00;;;;;;;17.09;100.00;101625.64;1940725;74;33115;-70
2021/10/18 13:15:42;;;;;;;46.33;43.13;;;;;;;17.05;100.00;101620.39;1941069;74;31574;-71
2021/10/18 13:21:10;;;;;;;48.30;44.93;;;;;;;17.02;100.00;101628.59;1940824;74;31152;-70
2021/10/18 13:26:35;;;;;;;49.53;46.03;;;;;;;16.97;100.00;101623.08;1941093;74;33240;-71
2021/10/18 13:32:01;;;;;;;51.70;48.00;;;;;;;16.98;100.00;101631.20;1941014;74;33429;-71
2021/10/18 13:37:26;;;;;;;51.93;48.20;;;;;;;16.96;100.00;101629.26;1940814;74;31032;-71
2021/10/18 13:42:52;;;;;;;52.87;48.87;;;;;;;16.99;100.00;101623.02;1940791;74;31112;-70
2021/10/18 13:48:20;;;;;;;53.27;49.27;;;;;;;16.98;100.00;101617.17;1940941;74;31141;-70
2021/10/18 13:53:46;;;;;;;52.30;48.47;;;;;;;17.00;100.00;101622.45;1941136;74;33465;-70
2021/10/18 13:59:18;;;;;;;51.40;47.67;;;;;;;16.92;100.00;101611.94;1940802;74;31062;-70
2021/10/18 14:04:46;;;;;;;52.30;48.40;;;;;;;16.97;100.00;101615.49;1938294;73;31113;-70
2021/10/18 14:10:15;;;;;;;51.83;48.17;;;;;;;17.03;100.00;101610.02;1940862;74;31113;-70
2021/10/18 14:15:40;;;;;;;53.67;49.60;;;;;;;17.08;100.00;101621.16;1940903;74;31139;-70
2021/10/18 14:21:07;;;;;;;52.17;48.20;;;;;;;17.12;100.00;101617.16;1940806;74;31202;-70
2021/10/18 14:26:39;;;;;;;53.17;49.13;;;;;;;17.09;100.00;101613.00;1940807;74;31092;-70
2021/10/18 14:32:06;;;;;;;51.90;48.00;;;;;;;17.15;100.00;101608.14;1940911;74;31040;-70
2021/10/18 14:37:31;;;;;;;52.70;48.90;;;;;;;17.15;100.00;101601.95;1941035;74;31128;-70
2021/10/18 14:42:56;;;;;;;51.57;47.80;;;;;;;17.08;100.00;101584.66;1940878;74;31078;-73
2021/10/18 14:48:40;;;;;;;54.20;50.10;;;;;;;17.19;100.00;101579.13;2009785;71;31484;-71
2021/10/18 14:54:06;;;;;;;50.70;46.80;;;;;;;17.20;100.00;101581.37;1940941;74;31039;-72
2021/10/18 14:59:31;;;;;;;51.13;47.20;;;;;;;17.23;100.00;101598.42;1940863;74;31035;-69
2021/10/18 15:04:55;;;;;;;51.83;48.07;;;;;;;17.22;100.00;101596.74;1940893;74;31099;-70
2021/10/18 15:10:19;;;;;;;51.33;47.80;;;;;;;17.24;100.00;101586.02;1940886;74;31055;-72
2021/10/18 15:15:44;;;;;;;52.37;48.57;;;;;;;17.23;100.00;101573.71;1941052;74;31049;-70
2021/10/18 15:21:15;;;;;;;49.57;46.23;;;;;;;17.22;100.00;101558.00;1937903;73;31522;-70
2021/10/18 15:26:48;;;;;;;50.53;46.80;;;;;;;17.22;100.00;101557.44;1940989;74;31228;-69
2021/10/18 15:32:13;;;;;;;48.33;45.03;;;;;;;17.25;100.00;101546.97;1941037;74;31057;-69
2021/10/18 15:37:38;;;;;;;47.77;44.47;;;;;;;17.25;100.00;101551.19;1941076;74;31117;-68
2021/10/18 15:43:08;;;;;;;49.43;46.03;;;;;;;17.32;100.00;101554.16;1941074;74;31068;-70
2021/10/18 15:48:37;;;;;;;48.80;45.47;;;;;;;17.27;100.00;101541.05;1940874;74;31151;-70
2021/10/18 15:54:02;;;;;;;49.53;46.13;;;;;;;17.19;100.00;101547.41;1941008;74;31665;-71
2021/10/18 15:59:29;;;;;;;46.47;43.40;;;;;;;17.14;100.00;101537.11;1940881;74;32989;-70
2021/10/18 16:04:54;;;;;;;47.43;44.13;;;;;;;17.21;100.00;101552.95;1940975;74;33449;-69
2021/10/18 16:10:20;;;;;;;45.73;42.53;;;;;;;17.13;100.00;101541.06;1941130;74;31576;-70
2021/10/18 16:15:46;;;;;;;45.90;42.50;;;;;;;17.10;100.00;101534.67;1941012;74;31047;-72
2021/10/18 16:21:12;;;;;;;45.13;42.13;;;;;;;17.13;100.00;101531.80;1940904;74;31064;-69
2021/10/18 16:26:40;;;;;;;47.90;44.60;;;;;;;17.15;100.00;101528.95;1940914;74;31041;-70
2021/10/18 16:32:12;;;;;;;48.17;44.80;;;;;;;17.01;100.00;101523.91;1925152;74;28667;-69
2021/10/18 16:37:39;;;;;;;49.33;45.93;;;;;;;17.08;100.00;101519.27;1941016;74;31630;-70
2021/10/18 16:43:05;;;;;;;48.50;45.00;;;;;;;17.04;100.00;101519.63;1941002;74;33504;-71
2021/10/18 16:48:34;;;;;;;46.70;43.47;;;;;;;17.01;100.00;101542.16;1940772;74;31053;-70
2021/10/18 16:53:59;;;;;;;47.87;44.37;;;;;;;16.96;100.00;101531.02;1940924;74;31138;-70
2021/10/18 16:59:33;;;;;;;47.90;44.43;;;;;;;16.94;100.00;101533.33;1941706;73;31615;-71
2021/10/18 17:04:57;;;;;;;48.57;44.87;;;;;;;16.90;100.00;101548.29;1941065;74;31545;-70
2021/10/18 17:10:22;;;;;;;50.33;46.43;;;;;;;16.86;100.00;101559.88;1940796;74;31101;-71
2021/10/18 17:15:46;;;;;;;49.80;46.20;;;;;;;16.82;100.00;101561.88;1940823;74;33085;-70
2021/10/18 17:21:12;;;;;;;50.27;46.30;;;;;;;16.78;100.00;101555.79;1940976;74;31629;-70
2021/10/18 17:26:38;;;;;;;47.93;44.43;;;;;;;16.79;100.00;101549.05;1940835;74;33085;-70
2021/10/18 17:32:06;;;;;;;48.13;44.63;;;;;;;16.78;100.00;101557.19;1941068;74;33472;-71
2021/10/18 17:37:30;;;;;;;45.17;41.90;;;;;;;16.78;100.00;101551.58;1941127;74;33436;-70
2021/10/18 17:42:54;;;;;;;44.57;41.47;;;;;;;16.73;100.00;101562.33;1940911;74;31074;-70
2021/10/18 17:48:21;;;;;;;44.43;41.23;;;;;;;16.73;100.00;101558.69;1941046;74;31622;-73
2021/10/18 17:53:45;;;;;;;44.63;41.33;;;;;;;16.75;100.00;101563.44;1940874;74;33528;-72
2021/10/18 17:59:10;;;;;;;41.83;38.83;;;;;;;16.71;100.00;101556.21;1940883;74;31048;-71
2021/10/18 18:04:36;;;;;;;38.77;35.97;;;;;;;16.71;100.00;101555.37;1940787;74;31110;-70
2021/10/18 18:10:03;;;;;;;38.47;35.87;;;;;;;16.70;100.00;101545.28;1941177;74;31010;-73
2021/10/18 18:15:28;;;;;;;39.87;36.87;;;;;;;16.73;100.00;101542.69;1940994;74;31525;-70
2021/10/18 18:20:53;;;;;;;38.53;35.90;;;;;;;16.73;100.00;101534.27;1940911;74;31017;-70
2021/10/18 18:26:24;;;;;;;37.53;34.73;;;;;;;16.74;100.00;101541.55;1941124;74;31022;-71
2021/10/18 18:31:52;;;;;;;37.23;34.73;;;;;;;16.77;100.00;101558.36;1940898;74;33079;-71
2021/10/18 18:37:16;;;;;;;37.17;34.43;;;;;;;16.73;100.00;101556.72;1941029;74;33482;-72
2021/10/18 18:42:41;;;;;;;35.63;33.07;;;;;;;16.74;100.00;101543.52;1940925;74;31083;-71
2021/10/18 18:48:07;;;;;;;36.33;34.03;;;;;;;16.77;100.00;101545.73;1940999;74;31591;-71
2021/10/18 18:53:34;;;;;;;36.67;34.27;;;;;;;16.77;100.00;101556.36;1941295;73;31107;-75
2021/10/18 18:58:59;;;;;;;36.90;34.50;;;;;;;16.83;100.00;101557.10;1940835;74;31030;-72
2021/10/18 19:04:23;;;;;;;36.73;34.47;;;;;;;16.84;100.00;101564.39;1940840;74;31121;-74
2021/10/18 19:09:48;;;;;;;36.77;34.57;;;;;;;16.91;100.00;101562.56;1940972;74;31163;-73
2021/10/18 19:15:14;;;;;;;36.50;34.20;;;;;;;16.89;100.00;101569.91;1940895;74;31122;-72
2021/10/18 19:20:40;;;;;;;37.70;35.40;;;;;;;16.93;100.00;101572.92;1941019;74;31542;-73
2021/10/18 19:26:04;;;;;;;36.67;34.37;;;;;;;16.92;100.00;101576.86;1940887;74;31118;-72
2021/10/18 19:31:36;;;;;;;36.17;33.97;;;;;;;16.96;100.00;101581.55;1940993;74;31015;-74
2021/10/18 19:37:01;;;;;;;36.73;34.27;;;;;;;17.01;100.00;101565.17;1940991;74;31005;-73
2021/10/18 19:42:28;;;;;;;36.17;33.83;;;;;;;17.08;100.00;101571.20;1940927;74;31002;-78
2021/10/18 19:47:54;;;;;;;36.50;34.20;;;;;;;16.97;100.00;101581.81;1940958;74;31017;-75
2021/10/18 19:53:15;;;;;;;35.30;33.00;;;;;;;17.03;100.00;101568.52;1940925;74;32928;-74
2021/10/18 19:58:53;;;;;;;36.77;34.53;;;;;;;17.07;100.00;101583.59;1941058;74;31045;-76
2021/10/18 20:04:19;;;;;;;36.37;33.80;;;;;;;17.12;100.00;101575.87;1940792;74;31620;-72
2021/10/18 20:09:46;;;;;;;36.13;33.67;;;;;;;17.09;100.00;101570.06;1941061;74;33524;-71
2021/10/18 20:15:12;;;;;;;36.50;34.10;;;;;;;17.14;100.00;101561.55;1941083;74;31077;-71
2021/10/18 20:20:39;;;;;;;37.73;35.43;;;;;;;17.18;100.00;101559.20;1941080;74;31110;-73
2021/10/18 20:26:05;;;;;;;38.07;35.57;;;;;;;17.09;100.00;101548.44;1940823;74;31079;-74
2021/10/18 20:31:27;;;;;;;36.93;34.53;;;;;;;17.18;100.00;101556.40;1940912;74;31114;-70
2021/10/18 20:36:53;;;;;;;38.13;35.63;;;;;;;17.12;100.00;101565.22;1941108;74;31062;-76
2021/10/18 20:42:19;;;;;;;39.13;36.67;;;;;;;17.09;100.00;101572.87;1941126;74;31612;-77
2021/10/18 20:47:44;;;;;;;40.93;38.63;;;;;;;17.14;100.00;101578.39;1941080;74;31575;-73
2021/10/18 20:53:08;;;;;;;42.87;40.47;;;;;;;17.13;100.00;101588.78;1940971;74;31836;-74
2021/10/18 20:58:33;;;;;;;42.73;40.33;;;;;;;17.09;100.00;101577.08;1941020;74;31251;-72
2021/10/18 21:03:57;;;;;;;41.90;39.60;;;;;;;17.13;100.00;101573.34;1941051;74;33494;-77
2021/10/18 21:09:23;;;;;;;36.73;34.33;;;;;;;17.15;100.00;101562.64;1940858;74;31083;-72
2021/10/18 21:14:47;;;;;;;40.00;37.87;;;;;;;17.17;100.00;101572.14;1941007;74;31053;-80
2021/10/18 21:20:13;;;;;;;41.40;39.07;;;;;;;17.25;100.00;101579.27;1940933;74;31051;-79
2021/10/18 21:25:38;;;;;;;43.93;41.27;;;;;;;17.22;100.00;101586.08;1941072;74;31140;-71
2021/10/18 21:31:03;;;;;;;43.00;40.47;;;;;;;17.27;100.00;101602.83;1940932;74;31137;-77
2021/10/18 21:36:27;;;;;;;44.00;41.50;;;;;;;17.34;100.00;101604.64;1940908;74;31061;-74
2021/10/18 21:42:12;;;;;;;41.43;38.93;;;;;;;17.27;100.00;101594.41;2009932;71;30843;-72
2021/10/18 21:47:37;;;;;;;40.63;37.97;;;;;;;17.23;100.00;101606.00;1941137;74;31139;-72
2021/10/18 21:50:10;;;;;;;41.10;38.53;;;;;;;17.25;100.00;101612.13;1904945;75;24115;-72
2021/10/18 21:55:35;;;;;;;41.43;38.83;;;;;;;17.21;100.00;101603.50;1941023;74;31069;-72
2021/10/18 22:01:00;;;;;;;36.53;34.03;;;;;;;17.23;100.00;101616.67;1940853;74;31063;-72
2021/10/18 22:06:25;;;;;;;40.70;38.20;;;;;;;17.24;100.00;101607.08;1941076;74;33631;-73
2021/10/18 22:11:49;;;;;;;41.00;38.20;;;;;;;17.25;100.00;101618.58;1941117;74;33450;-71
2021/10/18 22:17:14;;;;;;;42.90;40.33;;;;;;;17.33;100.00;101621.83;1940892;74;31081;-71
2021/10/18 22:22:39;;;;;;;36.67;34.13;;;;;;;17.28;100.00;101617.14;1940981;74;33663;-71
2021/10/18 22:28:06;;;;;;;40.73;38.03;;;;;;;17.34;100.00;101617.84;1940875;74;31047;-71
2021/10/18 22:33:30;;;;;;;38.67;35.83;;;;;;;17.35;100.00;101611.09;1940899;74;31133;-70
2021/10/18 22:38:54;;;;;;;39.13;36.23;;;;;;;17.36;100.00;101603.77;1940823;74;31043;-71
2021/10/18 22:44:19;;;;;;;39.03;36.33;;;;;;;17.24;100.00;101593.64;1941065;74;31582;-71
2021/10/18 22:49:44;;;;;;;40.93;38.00;;;;;;;17.22;100.00;101589.72;1941021;74;31125;-70
2021/10/18 22:55:10;;;;;;;41.47;38.37;;;;;;;17.39;100.00;101589.66;1941078;74;31104;-71
2021/10/18 23:00:35;;;;;;;38.70;35.73;;;;;;;17.34;100.00;101577.13;1940846;74;33152;-71
2021/10/18 23:06:03;;;;;;;41.40;38.53;;;;;;;17.38;100.00;101566.92;1941029;74;31096;-71
2021/10/18 23:11:27;;;;;;;39.13;36.43;;;;;;;17.30;100.00;101565.13;1940808;74;31246;-72
2021/10/18 23:16:55;;;;;;;39.27;36.07;;;;;;;17.43;100.00;101559.80;1941036;74;31054;-71
2021/10/18 23:22:20;;;;;;;36.80;33.90;;;;;;;17.41;100.00;101541.87;1941035;74;31652;-73
2021/10/18 23:27:44;;;;;;;37.00;34.10;;;;;;;17.44;100.00;101545.45;1941117;74;31212;-71
2021/10/18 23:33:09;;;;;;;35.77;33.03;;;;;;;17.49;100.00;101576.81;1940863;74;31085;-72
2021/10/18 23:38:34;;;;;;;35.07;32.30;;;;;;;17.51;100.00;101580.13;1940851;74;31227;-70
2021/10/18 23:44:05;;;;;;;36.03;33.53;;;;;;;17.48;100.00;101592.83;1940848;74;33148;-75
2021/10/18 23:49:34;;;;;;;34.03;31.57;;;;;;;17.47;100.00;101577.69;1940973;74;31117;-73
2021/10/18 23:55:00;;;;;;;34.50;32.10;;;;;;;17.56;100.00;101565.97;1940964;74;33491;-71
